Time;durP1;ratioP1;P1;durP2;ratioP2;P2;SDS_P1;SDS_P2;PMS_P1;PMS_P2;Temp;Humidity;BMP_temperature;BMP_pressure;BME280_temperature;BME280_humidity;BME280_pressure;Samples;Min_cycle;Max_cycle;Signal;HPM_P1;HPM_P2
2022/01/27 00:00:41;;;;;;;;;;;20.30;32.80;;;;;;682362;29;1345;-83
2022/01/27 00:01:06;;;;;;;;;;;20.30;32.80;;;;;;677757;29;930;-85
2022/01/27 00:01:40;;;;;;;;;;;20.30;33.00;;;;;;677759;29;804;-83
2022/01/27 00:03:46;;;;;;;;;;;20.30;32.90;;;;;;680159;29;1515;-82
2022/01/27 00:04:16;;;;;;;;;;;20.30;34.00;;;;;;680324;29;1493;-85
2022/01/27 00:04:50;;;;;;;;;;;20.30;32.80;;;;;;680403;29;811;-80
2022/01/27 00:05:40;;;;;;;;;;;20.30;34.00;;;;;;677835;29;646;-84
2022/01/27 00:06:06;;;;;;;;;;;20.30;32.90;;;;;;677755;29;1074;-84
2022/01/27 00:06:26;;;;;;;;;;;20.30;32.90;;;;;;677808;29;792;-83
2022/01/27 00:06:47;;;;;;;;;;;20.30;32.80;;;;;;677793;29;843;-82
2022/01/27 00:07:08;;;;;;;;;;;20.30;32.80;;;;;;677836;29;796;-82
2022/01/27 00:07:29;;;;;;;;;;;20.30;32.80;;;;;;677708;29;756;-81
2022/01/27 00:08:42;;;;;;;;;;;20.30;32.90;;;;;;677792;29;653;-83
2022/01/27 00:11:03;;;;;;;;;;;20.30;32.90;;;;;;675130;29;731;-83
2022/01/27 00:11:23;;;;;;;;;;;20.30;32.90;;;;;;675181;29;890;-81
2022/01/27 00:11:46;;;;;;;;;;;20.30;33.00;;;;;;675112;29;1113;-80
2022/01/27 00:12:07;;;;;;;;;;;20.30;32.90;;;;;;675267;29;842;-80
2022/01/27 00:12:28;;;;;;;;;;;20.30;32.80;;;;;;675052;29;1208;-84
2022/01/27 00:12:48;;;;;;;;;;;20.30;32.80;;;;;;675185;29;951;-79
2022/01/27 00:13:17;;;;;;;;;;;20.30;32.80;;;;;;675096;29;816;-80
2022/01/27 00:13:49;;;;;;;;;;;20.30;32.90;;;;;;675236;29;1468;-81
2022/01/27 00:14:11;;;;;;;;;;;20.30;32.90;;;;;;675212;29;807;-81
2022/01/27 00:14:31;;;;;;;;;;;20.30;33.00;;;;;;675327;29;803;-82
2022/01/27 00:15:07;;;;;;;;;;;20.30;32.90;;;;;;675163;29;827;-83
2022/01/27 00:15:33;;;;;;;;;;;20.30;32.70;;;;;;675154;29;910;-82
2022/01/27 00:16:00;;;;;;;;;;;20.30;32.90;;;;;;675197;29;835;-83
2022/01/27 00:16:27;;;;;;;;;;;20.30;33.00;;;;;;672439;29;1383;-80
2022/01/27 00:16:59;;;;;;;;;;;20.30;32.90;;;;;;672546;29;867;-84
2022/01/27 00:17:28;;;;;;;;;;;20.30;32.70;;;;;;672542;29;886;-84
2022/01/27 00:17:57;;;;;;;;;;;20.30;33.00;;;;;;672545;29;820;-79
2022/01/27 00:18:18;;;;;;;;;;;20.30;33.00;;;;;;674418;29;1307;-83
2022/01/27 00:18:39;;;;;;;;;;;20.30;33.00;;;;;;675251;29;1127;-81
2022/01/27 00:19:00;;;;;;;;;;;20.30;33.30;;;;;;675073;29;986;-83
2022/01/27 00:19:21;;;;;;;;;;;20.30;33.00;;;;;;675010;29;887;-85
2022/01/27 00:19:42;;;;;;;;;;;20.30;33.10;;;;;;675060;29;875;-83
2022/01/27 00:20:03;;;;;;;;;;;20.30;33.10;;;;;;675307;29;804;-82
2022/01/27 00:20:23;;;;;;;;;;;20.30;33.10;;;;;;675084;29;851;-82
2022/01/27 00:20:47;;;;;;;;;;;20.20;33.10;;;;;;675233;29;622;-79
2022/01/27 00:21:07;;;;;;;;;;;20.30;33.10;;;;;;675326;29;807;-82
2022/01/27 00:21:29;;;;;;;;;;;20.30;33.10;;;;;;675022;29;1114;-84
2022/01/27 00:21:50;;;;;;;;;;;20.30;33.20;;;;;;677721;29;863;-82
2022/01/27 00:22:11;;;;;;;;;;;20.30;33.20;;;;;;677732;29;811;-84
2022/01/27 00:22:31;;;;;;;;;;;20.30;33.10;;;;;;677495;29;1458;-83
2022/01/27 00:22:52;;;;;;;;;;;20.30;33.20;;;;;;675275;29;1476;-78
2022/01/27 00:23:13;;;;;;;;;;;20.20;33.10;;;;;;675060;29;1399;-82
2022/01/27 00:23:34;;;;;;;;;;;20.30;33.20;;;;;;675238;29;903;-82
2022/01/27 00:23:55;;;;;;;;;;;20.30;33.10;;;;;;675140;29;938;-82
2022/01/27 00:24:16;;;;;;;;;;;20.30;33.20;;;;;;675082;29;780;-82
2022/01/27 00:24:36;;;;;;;;;;;20.30;33.20;;;;;;675564;29;1351;-83
2022/01/27 00:24:57;;;;;;;;;;;20.30;33.10;;;;;;677649;29;1978;-81
2022/01/27 00:25:17;;;;;;;;;;;20.20;33.10;;;;;;675600;29;1116;-84
2022/01/27 00:25:38;;;;;;;;;;;20.30;33.20;;;;;;675111;29;887;-81
2022/01/27 00:25:59;;;;;;;;;;;20.30;33.20;;;;;;675126;29;867;-80
2022/01/27 00:26:20;;;;;;;;;;;20.30;33.20;;;;;;674989;29;1375;-82
2022/01/27 00:26:40;;;;;;;;;;;20.30;33.30;;;;;;675155;29;800;-82
2022/01/27 00:27:01;;;;;;;;;;;20.30;33.30;;;;;;675242;29;827;-83
2022/01/27 00:27:22;;;;;;;;;;;20.20;33.30;;;;;;674947;29;1024;-83
2022/01/27 00:27:42;;;;;;;;;;;20.20;33.20;;;;;;675105;29;891;-81
2022/01/27 00:28:05;;;;;;;;;;;20.30;33.20;;;;;;675200;29;942;-81
2022/01/27 00:28:27;;;;;;;;;;;20.20;33.10;;;;;;675771;29;1291;-83
2022/01/27 00:28:48;;;;;;;;;;;20.30;33.20;;;;;;677723;29;878;-82
2022/01/27 00:29:09;;;;;;;;;;;20.30;33.30;;;;;;677911;29;871;-82
2022/01/27 00:29:29;;;;;;;;;;;20.30;33.30;;;;;;677878;29;808;-84
2022/01/27 00:29:50;;;;;;;;;;;20.30;33.20;;;;;;677617;29;918;-82
2022/01/27 00:30:11;;;;;;;;;;;20.30;33.20;;;;;;677845;29;867;-84
2022/01/27 00:30:32;;;;;;;;;;;20.30;33.30;;;;;;677891;29;816;-84
2022/01/27 00:30:53;;;;;;;;;;;20.30;33.20;;;;;;677697;29;795;-84
2022/01/27 00:31:15;;;;;;;;;;;20.30;33.20;;;;;;677761;29;835;-84
2022/01/27 00:31:35;;;;;;;;;;;20.20;33.20;;;;;;677811;29;879;-84
2022/01/27 00:31:56;;;;;;;;;;;20.30;33.20;;;;;;677673;29;887;-84
2022/01/27 00:32:16;;;;;;;;;;;20.20;33.10;;;;;;677752;29;842;-83
2022/01/27 00:32:37;;;;;;;;;;;20.30;33.20;;;;;;677768;29;969;-82
2022/01/27 00:32:58;;;;;;;;;;;20.30;33.10;;;;;;677685;29;811;-83
2022/01/27 00:33:18;;;;;;;;;;;20.30;33.20;;;;;;677784;29;816;-80
2022/01/27 00:33:39;;;;;;;;;;;20.30;33.30;;;;;;677586;29;816;-79
2022/01/27 00:34:03;;;;;;;;;;;20.30;33.20;;;;;;677678;29;931;-84
2022/01/27 00:34:24;;;;;;;;;;;20.30;33.20;;;;;;677624;29;967;-83
2022/01/27 00:34:44;;;;;;;;;;;20.30;33.10;;;;;;677769;29;808;-83
2022/01/27 00:35:06;;;;;;;;;;;20.20;33.10;;;;;;677798;29;888;-85
2022/01/27 00:35:26;;;;;;;;;;;20.20;33.10;;;;;;677744;29;780;-85
2022/01/27 00:35:47;;;;;;;;;;;20.30;33.20;;;;;;677696;29;824;-84
2022/01/27 00:36:08;;;;;;;;;;;20.30;33.20;;;;;;675387;29;969;-85
2022/01/27 00:36:28;;;;;;;;;;;20.30;33.10;;;;;;675039;29;807;-83
2022/01/27 00:36:49;;;;;;;;;;;20.30;33.20;;;;;;675143;29;855;-83
2022/01/27 00:37:09;;;;;;;;;;;20.30;33.20;;;;;;675160;29;970;-84
2022/01/27 00:37:30;;;;;;;;;;;20.30;33.20;;;;;;675176;29;946;-84
2022/01/27 00:37:51;;;;;;;;;;;20.30;33.20;;;;;;675208;29;1485;-84
2022/01/27 00:38:11;;;;;;;;;;;20.30;33.20;;;;;;677688;29;938;-84
2022/01/27 00:38:32;;;;;;;;;;;20.30;33.10;;;;;;675092;29;1119;-84
2022/01/27 00:38:53;;;;;;;;;;;20.20;33.20;;;;;;675078;29;807;-85
2022/01/27 00:39:13;;;;;;;;;;;20.20;33.10;;;;;;675083;29;927;-82
2022/01/27 00:39:34;;;;;;;;;;;20.30;33.20;;;;;;675234;29;792;-83
2022/01/27 00:39:54;;;;;;;;;;;20.30;33.20;;;;;;675203;29;815;-84
2022/01/27 00:40:15;;;;;;;;;;;20.20;33.20;;;;;;675361;29;930;-83
2022/01/27 00:40:36;;;;;;;;;;;20.30;33.20;;;;;;677684;29;1275;-83
2022/01/27 00:40:56;;;;;;;;;;;20.30;33.20;;;;;;677667;29;984;-83
2022/01/27 00:41:19;;;;;;;;;;;20.30;33.10;;;;;;675088;29;1218;-84
2022/01/27 00:41:40;;;;;;;;;;;20.30;33.10;;;;;;675068;29;871;-81
2022/01/27 00:42:00;;;;;;;;;;;20.30;33.10;;;;;;675147;29;851;-83
2022/01/27 00:42:22;;;;;;;;;;;20.30;33.20;;;;;;675160;29;812;-83
2022/01/27 00:42:45;;;;;;;;;;;20.20;33.10;;;;;;672435;29;1119;-84
2022/01/27 00:43:05;;;;;;;;;;;20.30;33.20;;;;;;673537;29;796;-83
2022/01/27 00:43:26;;;;;;;;;;;20.30;33.20;;;;;;675153;29;860;-82
2022/01/27 00:43:48;;;;;;;;;;;20.30;34.40;;;;;;675303;29;843;-84
2022/01/27 00:44:08;;;;;;;;;;;20.30;33.20;;;;;;675182;29;863;-80
2022/01/27 00:44:29;;;;;;;;;;;20.30;33.20;;;;;;675158;29;886;-84
2022/01/27 00:44:50;;;;;;;;;;;20.30;33.30;;;;;;675013;29;1911;-82
2022/01/27 00:45:10;;;;;;;;;;;20.20;33.10;;;;;;675132;29;899;-83
2022/01/27 00:45:32;;;;;;;;;;;20.30;33.20;;;;;;675619;29;851;-84
2022/01/27 00:45:53;;;;;;;;;;;20.30;33.20;;;;;;677613;29;1422;-83
2022/01/27 00:46:16;;;;;;;;;;;20.20;33.10;;;;;;677669;29;812;-82
2022/01/27 00:46:37;;;;;;;;;;;20.20;33.00;;;;;;677752;29;863;-83
2022/01/27 00:46:57;;;;;;;;;;;20.30;33.10;;;;;;677712;29;800;-85
2022/01/27 00:47:18;;;;;;;;;;;20.20;33.10;;;;;;681223;28;1284;-85
2022/01/27 00:47:39;;;;;;;;;;;20.30;33.20;;;;;;685947;28;830;-81
2022/01/27 00:48:03;;;;;;;;;;;20.20;33.00;;;;;;686020;28;933;-85
2022/01/27 00:48:23;;;;;;;;;;;20.20;33.10;;;;;;688210;28;1204;-83
2022/01/27 00:48:45;;;;;;;;;;;20.20;33.10;;;;;;688347;28;886;-85
2022/01/27 00:49:06;;;;;;;;;;;20.20;33.10;;;;;;688352;28;850;-85
2022/01/27 00:49:26;;;;;;;;;;;20.20;33.10;;;;;;688333;28;1444;-85
2022/01/27 00:49:47;;;;;;;;;;;20.20;33.10;;;;;;688369;28;806;-84
2022/01/27 00:50:07;;;;;;;;;;;20.20;33.10;;;;;;688066;28;934;-83
2022/01/27 00:50:28;;;;;;;;;;;20.20;33.10;;;;;;685822;28;1457;-82
2022/01/27 00:50:55;;;;;;;;;;;20.20;33.10;;;;;;685896;28;842;-81
2022/01/27 00:51:20;;;;;;;;;;;20.20;33.20;;;;;;685886;28;827;-82
2022/01/27 00:51:45;;;;;;;;;;;20.20;33.10;;;;;;685898;28;814;-83
2022/01/27 00:52:10;;;;;;;;;;;20.20;33.10;;;;;;686065;28;790;-83
2022/01/27 00:52:38;;;;;;;;;;;20.20;33.50;;;;;;686033;28;898;-82
2022/01/27 00:53:02;;;;;;;;;;;20.20;33.10;;;;;;685857;28;953;-81
2022/01/27 00:54:02;;;;;;;;;;;20.20;33.20;;;;;;685282;28;1278;-81
2022/01/27 00:54:26;;;;;;;;;;;20.20;33.20;;;;;;683012;28;886;-83
2022/01/27 00:54:47;;;;;;;;;;;20.20;33.20;;;;;;682997;28;791;-84
2022/01/27 00:55:09;;;;;;;;;;;20.20;33.20;;;;;;682959;28;802;-85
2022/01/27 00:55:36;;;;;;;;;;;20.20;33.10;;;;;;684270;28;1244;-83
2022/01/27 00:56:05;;;;;;;;;;;20.20;33.20;;;;;;685911;28;901;-83
2022/01/27 00:56:35;;;;;;;;;;;20.20;33.20;;;;;;685910;28;791;-83
2022/01/27 00:57:08;;;;;;;;;;;20.20;33.10;;;;;;685839;28;1443;-85
2022/01/27 01:00:00;;;;;;;;;;;20.20;33.20;;;;;;684643;28;1228;-85
2022/01/27 01:00:27;;;;;;;;;;;20.20;33.20;;;;;;685766;28;814;-83
2022/01/27 01:00:55;;;;;;;;;;;20.20;33.10;;;;;;685678;28;870;-83
2022/01/27 01:01:20;;;;;;;;;;;20.20;33.20;;;;;;685885;28;543;-82
2022/01/27 01:01:44;;;;;;;;;;;20.20;33.20;;;;;;685868;28;576;-83
2022/01/27 01:02:45;;;;;;;;;;;20.20;33.20;;;;;;685935;28;893;-84
2022/01/27 01:03:02;;;;;;;;;;;20.20;33.20;;;;;;686495;28;1609;-83
2022/01/27 01:03:46;;;;;;;;;;;20.20;33.30;;;;;;685882;28;834;-84
2022/01/27 01:04:06;;;;;;;;;;;20.20;33.20;;;;;;685680;28;1179;-84
2022/01/27 01:04:32;;;;;;;;;;;20.20;33.20;;;;;;685707;28;1326;-85
2022/01/27 01:05:10;;;;;;;;;;;20.20;33.20;;;;;;688134;28;1954;-81
2022/01/27 01:06:53;;;;;;;;;;;20.20;33.30;;;;;;685787;28;668;-81
2022/01/27 01:07:16;;;;;;;;;;;20.20;33.30;;;;;;685529;28;991;-85
2022/01/27 01:07:39;;;;;;;;;;;20.20;33.30;;;;;;685550;28;854;-83
2022/01/27 01:08:30;;;;;;;;;;;20.20;33.30;;;;;;685697;28;842;-83
2022/01/27 01:13:40;;;;;;;;;;;20.20;33.40;;;;;;682964;29;602;-83
2022/01/27 01:14:48;;;;;;;;;;;20.20;33.50;;;;;;682989;29;705;-84
2022/01/27 01:15:33;;;;;;;;;;;20.20;33.60;;;;;;683042;29;606;-83
2022/01/27 01:15:54;;;;;;;;;;;20.20;33.60;;;;;;682994;29;854;-83
2022/01/27 01:16:25;;;;;;;;;;;20.20;33.50;;;;;;682843;29;808;-84
2022/01/27 01:17:43;;;;;;;;;;;20.20;33.60;;;;;;682898;29;1122;-83
2022/01/27 01:17:54;;;;;;;;;;;20.20;33.60;;;;;;682872;29;820;-84
2022/01/27 01:18:59;;;;;;;;;;;20.20;33.60;;;;;;682956;29;1064;-83
2022/01/27 01:20:06;;;;;;;;;;;20.20;33.50;;;;;;682870;29;835;-83
2022/01/27 01:30:50;;;;;;;;;;;20.10;33.60;;;;;;682848;29;1397;-82
2022/01/27 01:31:48;;;;;;;;;;;20.10;33.60;;;;;;682910;29;803;-83
2022/01/27 01:32:54;;;;;;;;;;;20.10;33.50;;;;;;682863;29;1115;-85
2022/01/27 01:33:21;;;;;;;;;;;20.10;33.50;;;;;;682906;29;1335;-84
2022/01/27 01:33:44;;;;;;;;;;;20.10;33.50;;;;;;683079;29;918;-83
2022/01/27 01:34:32;;;;;;;;;;;20.10;33.40;;;;;;683265;29;767;-81
2022/01/27 01:34:54;;;;;;;;;;;20.10;33.50;;;;;;683005;29;819;-84
2022/01/27 01:35:14;;;;;;;;;;;20.10;33.40;;;;;;682863;29;1149;-84
2022/01/27 01:35:47;;;;;;;;;;;20.10;33.40;;;;;;683001;29;897;-83
2022/01/27 01:36:34;;;;;;;;;;;20.10;33.40;;;;;;682999;29;953;-78
2022/01/27 01:37:01;;;;;;;;;;;20.10;33.40;;;;;;682726;29;1453;-81
2022/01/27 01:37:22;;;;;;;;;;;20.10;33.50;;;;;;682888;29;886;-85
2022/01/27 01:37:43;;;;;;;;;;;20.10;33.40;;;;;;682912;29;874;-84
2022/01/27 01:38:04;;;;;;;;;;;20.10;33.30;;;;;;682903;29;1402;-86
2022/01/27 01:38:26;;;;;;;;;;;20.10;33.30;;;;;;682932;29;839;-79
2022/01/27 01:38:46;;;;;;;;;;;20.10;33.30;;;;;;682977;29;877;-81
2022/01/27 01:39:07;;;;;;;;;;;20.10;33.30;;;;;;682946;29;878;-83
2022/01/27 01:39:29;;;;;;;;;;;20.10;33.30;;;;;;682991;29;906;-85
2022/01/27 01:39:50;;;;;;;;;;;20.10;33.30;;;;;;683022;29;799;-84
2022/01/27 01:40:11;;;;;;;;;;;20.10;33.50;;;;;;682645;29;1504;-82
2022/01/27 01:40:32;;;;;;;;;;;20.10;33.40;;;;;;682953;29;815;-83
2022/01/27 01:40:53;;;;;;;;;;;20.10;33.40;;;;;;682957;29;842;-84
2022/01/27 01:41:14;;;;;;;;;;;20.10;33.30;;;;;;685385;28;1114;-86
2022/01/27 01:41:34;;;;;;;;;;;20.10;33.20;;;;;;685677;28;847;-84
2022/01/27 01:41:58;;;;;;;;;;;20.10;33.30;;;;;;685012;28;898;-82
2022/01/27 01:42:19;;;;;;;;;;;20.10;33.40;;;;;;682790;29;1420;-82
2022/01/27 01:42:40;;;;;;;;;;;20.10;33.40;;;;;;682769;29;1319;-83
2022/01/27 01:43:00;;;;;;;;;;;20.10;33.30;;;;;;682950;29;791;-84
2022/01/27 01:43:21;;;;;;;;;;;20.10;33.30;;;;;;681185;29;1071;-82
2022/01/27 01:43:41;;;;;;;;;;;20.10;33.30;;;;;;680327;29;823;-83
2022/01/27 01:44:02;;;;;;;;;;;20.10;33.30;;;;;;680366;29;933;-82
2022/01/27 01:44:24;;;;;;;;;;;20.10;33.30;;;;;;680231;29;989;-81
2022/01/27 01:44:48;;;;;;;;;;;20.10;33.20;;;;;;680165;29;1984;-84
2022/01/27 01:45:10;;;;;;;;;;;20.10;33.30;;;;;;680295;29;838;-84
2022/01/27 01:45:34;;;;;;;;;;;20.10;33.30;;;;;;680171;29;1168;-83
2022/01/27 01:45:55;;;;;;;;;;;20.10;33.30;;;;;;680233;29;870;-84
2022/01/27 01:46:15;;;;;;;;;;;20.10;33.40;;;;;;680051;29;946;-82
2022/01/27 01:46:36;;;;;;;;;;;20.10;33.30;;;;;;680424;29;819;-80
2022/01/27 01:46:57;;;;;;;;;;;20.10;33.30;;;;;;678268;29;1346;-83
2022/01/27 01:47:20;;;;;;;;;;;20.10;33.30;;;;;;677572;29;858;-84
2022/01/27 01:47:40;;;;;;;;;;;20.10;33.40;;;;;;678038;29;1198;-82
2022/01/27 01:48:01;;;;;;;;;;;20.10;33.20;;;;;;677750;29;843;-82
2022/01/27 01:48:23;;;;;;;;;;;20.10;33.30;;;;;;677706;29;962;-82
2022/01/27 01:48:43;;;;;;;;;;;20.10;33.20;;;;;;677728;29;811;-83
2022/01/27 01:49:05;;;;;;;;;;;20.10;33.30;;;;;;677744;29;1157;-83
2022/01/27 01:49:26;;;;;;;;;;;20.10;33.30;;;;;;677532;29;714;-81
2022/01/27 01:49:47;;;;;;;;;;;20.10;33.30;;;;;;677524;29;783;-83
2022/01/27 01:50:08;;;;;;;;;;;20.10;33.30;;;;;;677686;29;907;-84
2022/01/27 01:50:29;;;;;;;;;;;20.10;33.20;;;;;;677879;29;812;-83
2022/01/27 01:50:49;;;;;;;;;;;20.10;33.20;;;;;;677624;29;836;-82
2022/01/27 01:51:10;;;;;;;;;;;20.10;33.20;;;;;;677556;29;883;-82
2022/01/27 01:51:32;;;;;;;;;;;20.10;33.20;;;;;;677706;29;779;-83
2022/01/27 01:51:53;;;;;;;;;;;20.10;33.30;;;;;;677547;29;862;-81
2022/01/27 01:52:14;;;;;;;;;;;20.10;33.30;;;;;;677588;29;827;-80
2022/01/27 01:52:34;;;;;;;;;;;20.10;33.20;;;;;;677727;29;523;-84
2022/01/27 01:52:55;;;;;;;;;;;20.10;33.20;;;;;;677622;29;827;-80
2022/01/27 01:53:16;;;;;;;;;;;20.10;33.20;;;;;;677519;29;1564;-80
2022/01/27 01:53:37;;;;;;;;;;;20.10;33.30;;;;;;677746;29;898;-84
2022/01/27 01:53:58;;;;;;;;;;;20.10;33.20;;;;;;677569;29;831;-81
2022/01/27 01:54:18;;;;;;;;;;;20.10;33.30;;;;;;677593;29;958;-82
2022/01/27 01:54:39;;;;;;;;;;;20.10;33.20;;;;;;677738;29;835;-80
2022/01/27 01:55:00;;;;;;;;;;;20.10;33.20;;;;;;677762;29;831;-81
2022/01/27 01:55:20;;;;;;;;;;;20.20;33.30;;;;;;677589;29;984;-82
2022/01/27 01:55:41;;;;;;;;;;;20.10;33.20;;;;;;677615;29;934;-81
2022/01/27 01:56:04;;;;;;;;;;;20.10;33.30;;;;;;678353;29;1837;-79
2022/01/27 01:56:25;;;;;;;;;;;20.10;33.40;;;;;;677626;29;882;-83
2022/01/27 01:56:45;;;;;;;;;;;20.10;33.50;;;;;;677618;29;887;-85
2022/01/27 01:57:06;;;;;;;;;;;20.10;33.50;;;;;;677764;29;883;-84
2022/01/27 01:57:26;;;;;;;;;;;20.10;33.50;;;;;;677611;29;981;-84
2022/01/27 01:57:50;;;;;;;;;;;20.10;33.60;;;;;;677587;29;891;-85
2022/01/27 01:58:10;;;;;;;;;;;20.10;33.60;;;;;;677628;29;843;-85
2022/01/27 01:58:31;;;;;;;;;;;20.10;33.70;;;;;;677755;29;875;-85
2022/01/27 01:58:52;;;;;;;;;;;20.10;33.70;;;;;;677679;29;780;-86
2022/01/27 01:59:13;;;;;;;;;;;20.10;33.70;;;;;;677578;29;1357;-83
2022/01/27 01:59:36;;;;;;;;;;;20.10;34.90;;;;;;677697;29;879;-81
2022/01/27 01:59:57;;;;;;;;;;;20.10;33.80;;;;;;677652;29;835;-82
2022/01/27 02:00:18;;;;;;;;;;;20.10;33.70;;;;;;677636;29;847;-77
2022/01/27 02:00:39;;;;;;;;;;;20.10;33.80;;;;;;677783;29;930;-80
2022/01/27 02:00:59;;;;;;;;;;;20.10;33.70;;;;;;677748;29;894;-84
2022/01/27 02:01:20;;;;;;;;;;;20.10;33.70;;;;;;677563;29;1447;-84
2022/01/27 02:01:41;;;;;;;;;;;20.10;33.70;;;;;;677686;29;827;-84
2022/01/27 02:02:02;;;;;;;;;;;20.10;33.80;;;;;;677678;29;851;-85
2022/01/27 02:02:22;;;;;;;;;;;20.10;33.70;;;;;;677571;29;800;-79
2022/01/27 02:02:43;;;;;;;;;;;20.10;33.80;;;;;;677713;29;779;-85
2022/01/27 02:03:10;;;;;;;;;;;20.10;33.80;;;;;;677803;29;875;-86
2022/01/27 02:03:30;;;;;;;;;;;20.10;33.80;;;;;;677754;29;876;-84
2022/01/27 02:03:51;;;;;;;;;;;20.10;33.80;;;;;;677558;29;1209;-83
2022/01/27 02:04:12;;;;;;;;;;;20.10;33.80;;;;;;677560;29;824;-84
2022/01/27 02:04:32;;;;;;;;;;;20.10;33.90;;;;;;677635;29;858;-85
2022/01/27 02:04:55;;;;;;;;;;;20.10;34.00;;;;;;677725;29;1949;-85
2022/01/27 02:05:16;;;;;;;;;;;20.10;33.90;;;;;;677703;29;827;-83
2022/01/27 02:05:43;;;;;;;;;;;20.10;34.00;;;;;;677668;29;826;-84
2022/01/27 02:06:05;;;;;;;;;;;20.10;34.00;;;;;;677689;29;838;-83
2022/01/27 02:06:33;;;;;;;;;;;20.10;34.10;;;;;;678078;29;757;-85
2022/01/27 02:07:00;;;;;;;;;;;20.00;34.00;;;;;;678042;29;850;-83
2022/01/27 02:07:38;;;;;;;;;;;20.10;34.10;;;;;;678162;29;867;-84
2022/01/27 02:09:01;;;;;;;;;;;20.10;34.10;;;;;;683574;28;712;-85
2022/01/27 02:18:00;;;;;;;;;;;20.00;34.00;;;;;;686454;28;593;-77
2022/01/27 02:18:21;;;;;;;;;;;20.00;34.00;;;;;;686221;28;1428;-82
2022/01/27 02:18:41;;;;;;;;;;;20.00;34.10;;;;;;686359;28;889;-83
2022/01/27 02:19:02;;;;;;;;;;;20.00;34.00;;;;;;686366;28;795;-84
2022/01/27 02:19:23;;;;;;;;;;;20.00;34.00;;;;;;686228;28;806;-80
2022/01/27 02:19:44;;;;;;;;;;;20.00;34.00;;;;;;686178;28;798;-83
2022/01/27 02:20:06;;;;;;;;;;;20.00;34.00;;;;;;686458;28;1352;-81
2022/01/27 02:20:27;;;;;;;;;;;20.00;33.90;;;;;;686051;28;878;-83
2022/01/27 02:20:48;;;;;;;;;;;20.00;34.00;;;;;;686154;28;787;-84
2022/01/27 02:21:08;;;;;;;;;;;20.00;34.00;;;;;;686172;28;779;-83
2022/01/27 02:21:29;;;;;;;;;;;20.00;34.00;;;;;;686206;28;941;-83
2022/01/27 02:21:49;;;;;;;;;;;20.00;34.00;;;;;;686091;28;807;-83
2022/01/27 02:22:10;;;;;;;;;;;20.00;34.00;;;;;;686223;28;819;-84
2022/01/27 02:22:31;;;;;;;;;;;20.00;33.90;;;;;;686447;28;838;-84
2022/01/27 02:22:51;;;;;;;;;;;20.00;35.10;;;;;;686244;28;961;-84
2022/01/27 02:23:12;;;;;;;;;;;20.00;34.00;;;;;;686336;28;969;-79
2022/01/27 02:23:32;;;;;;;;;;;20.00;34.00;;;;;;686393;28;826;-83
2022/01/27 02:23:53;;;;;;;;;;;20.00;34.10;;;;;;686317;28;818;-85
2022/01/27 02:24:15;;;;;;;;;;;20.00;34.00;;;;;;686234;28;945;-85
2022/01/27 02:24:36;;;;;;;;;;;20.00;34.00;;;;;;686347;28;859;-85
2022/01/27 02:24:56;;;;;;;;;;;20.00;33.90;;;;;;686286;28;1899;-81
2022/01/27 02:25:17;;;;;;;;;;;20.00;33.90;;;;;;686257;28;1389;-85
2022/01/27 02:25:38;;;;;;;;;;;20.00;33.90;;;;;;686142;28;843;-83
2022/01/27 02:25:58;;;;;;;;;;;20.00;33.90;;;;;;686101;28;796;-87
2022/01/27 02:26:19;;;;;;;;;;;20.00;33.90;;;;;;685934;28;1191;-84
2022/01/27 02:26:40;;;;;;;;;;;20.00;34.00;;;;;;686123;28;771;-85
2022/01/27 02:27:01;;;;;;;;;;;20.00;33.90;;;;;;686252;28;1350;-84
2022/01/27 02:27:22;;;;;;;;;;;20.00;33.80;;;;;;686122;28;1017;-84
2022/01/27 02:27:42;;;;;;;;;;;20.00;33.90;;;;;;686231;28;810;-85
2022/01/27 02:28:03;;;;;;;;;;;20.00;33.80;;;;;;686433;28;945;-85
2022/01/27 02:28:24;;;;;;;;;;;20.00;33.70;;;;;;685916;28;1468;-85
2022/01/27 02:28:44;;;;;;;;;;;20.00;33.80;;;;;;686017;28;763;-85
2022/01/27 02:29:05;;;;;;;;;;;20.00;33.70;;;;;;686184;28;902;-85
2022/01/27 02:29:26;;;;;;;;;;;20.00;33.80;;;;;;686063;28;859;-84
2022/01/27 02:29:47;;;;;;;;;;;20.00;33.80;;;;;;684989;28;1525;-84
2022/01/27 02:30:08;;;;;;;;;;;20.00;33.80;;;;;;683472;29;862;-85
2022/01/27 02:30:28;;;;;;;;;;;20.00;33.80;;;;;;683624;28;838;-85
2022/01/27 02:30:49;;;;;;;;;;;20.00;33.80;;;;;;683262;28;1349;-81
2022/01/27 02:31:09;;;;;;;;;;;20.00;33.80;;;;;;683614;28;863;-84
2022/01/27 02:31:30;;;;;;;;;;;20.00;33.80;;;;;;683660;28;842;-85
2022/01/27 02:31:51;;;;;;;;;;;20.00;33.70;;;;;;685709;28;1618;-85
2022/01/27 02:32:13;;;;;;;;;;;20.00;33.80;;;;;;686200;28;1474;-83
2022/01/27 02:32:33;;;;;;;;;;;20.00;33.80;;;;;;686382;28;786;-82
2022/01/27 02:32:54;;;;;;;;;;;20.00;33.70;;;;;;686405;28;874;-84
2022/01/27 02:33:15;;;;;;;;;;;20.00;33.70;;;;;;686055;28;1568;-84
2022/01/27 02:33:35;;;;;;;;;;;20.00;33.70;;;;;;688999;28;885;-84
2022/01/27 02:33:57;;;;;;;;;;;20.00;33.70;;;;;;688741;28;814;-84
2022/01/27 02:34:18;;;;;;;;;;;20.00;33.70;;;;;;688721;28;819;-85
2022/01/27 02:34:39;;;;;;;;;;;20.00;33.70;;;;;;688726;28;854;-83
2022/01/27 02:35:01;;;;;;;;;;;20.00;33.70;;;;;;686024;28;1204;-84
2022/01/27 02:35:24;;;;;;;;;;;20.00;33.70;;;;;;686025;28;823;-83
2022/01/27 02:35:44;;;;;;;;;;;20.00;33.70;;;;;;685998;28;1010;-86
2022/01/27 02:36:05;;;;;;;;;;;20.00;33.70;;;;;;686099;28;902;-85
2022/01/27 02:36:25;;;;;;;;;;;20.00;33.70;;;;;;685985;28;831;-83
2022/01/27 02:36:46;;;;;;;;;;;20.00;33.70;;;;;;686048;28;906;-84
2022/01/27 02:37:07;;;;;;;;;;;20.00;33.80;;;;;;686220;28;1317;-83
2022/01/27 02:37:28;;;;;;;;;;;20.00;34.00;;;;;;686216;28;933;-86
2022/01/27 02:37:48;;;;;;;;;;;20.00;33.90;;;;;;686161;28;811;-84
2022/01/27 02:38:09;;;;;;;;;;;20.00;34.00;;;;;;686367;28;811;-81
2022/01/27 02:38:29;;;;;;;;;;;20.00;34.10;;;;;;686341;28;803;-83
2022/01/27 02:38:50;;;;;;;;;;;20.00;34.10;;;;;;686301;28;810;-84
2022/01/27 02:39:12;;;;;;;;;;;20.00;34.00;;;;;;686216;28;862;-83
2022/01/27 02:39:32;;;;;;;;;;;20.00;34.00;;;;;;686300;28;835;-84
2022/01/27 02:39:53;;;;;;;;;;;20.00;34.10;;;;;;686267;28;819;-82
2022/01/27 02:40:19;;;;;;;;;;;20.00;34.10;;;;;;686002;28;1510;-83
2022/01/27 02:40:43;;;;;;;;;;;20.00;34.10;;;;;;686187;28;862;-86
2022/01/27 02:41:04;;;;;;;;;;;20.00;34.10;;;;;;688832;28;1275;-85
2022/01/27 02:41:26;;;;;;;;;;;20.00;34.10;;;;;;688727;28;822;-84
2022/01/27 02:41:47;;;;;;;;;;;20.00;34.10;;;;;;688650;28;1374;-85
2022/01/27 02:42:16;;;;;;;;;;;20.00;34.20;;;;;;688833;28;1335;-82
2022/01/27 02:42:36;;;;;;;;;;;20.00;34.20;;;;;;688783;28;771;-83
2022/01/27 02:42:57;;;;;;;;;;;20.00;34.20;;;;;;687025;28;846;-83
2022/01/27 02:43:17;;;;;;;;;;;20.00;34.30;;;;;;685654;28;1589;-85
2022/01/27 02:43:38;;;;;;;;;;;20.00;34.20;;;;;;686072;28;830;-82
2022/01/27 02:43:58;;;;;;;;;;;20.00;34.30;;;;;;686072;28;815;-82
2022/01/27 02:44:21;;;;;;;;;;;20.00;34.30;;;;;;685943;28;949;-82
2022/01/27 02:44:47;;;;;;;;;;;20.00;34.30;;;;;;686167;28;811;-83
2022/01/27 02:45:12;;;;;;;;;;;20.00;34.30;;;;;;686260;28;867;-82
2022/01/27 02:45:35;;;;;;;;;;;20.00;34.30;;;;;;686067;28;1421;-84
2022/01/27 02:46:03;;;;;;;;;;;20.00;34.30;;;;;;688561;28;1249;-84
2022/01/27 02:46:30;;;;;;;;;;;20.00;34.30;;;;;;688666;28;835;-85
2022/01/27 02:46:51;;;;;;;;;;;20.00;34.30;;;;;;685857;28;1214;-85
2022/01/27 02:47:13;;;;;;;;;;;20.00;34.30;;;;;;685863;28;1419;-82
2022/01/27 02:47:33;;;;;;;;;;;20.00;34.50;;;;;;686036;28;834;-82
2022/01/27 02:47:54;;;;;;;;;;;20.00;34.50;;;;;;686092;28;850;-83
2022/01/27 02:48:14;;;;;;;;;;;20.00;34.50;;;;;;685926;28;917;-82
2022/01/27 02:48:35;;;;;;;;;;;20.00;34.70;;;;;;686083;28;799;-83
2022/01/27 02:48:56;;;;;;;;;;;20.00;34.70;;;;;;686219;28;791;-81
2022/01/27 02:49:17;;;;;;;;;;;20.00;35.10;;;;;;686222;28;882;-83
2022/01/27 02:49:38;;;;;;;;;;;20.00;35.00;;;;;;686234;28;799;-83
2022/01/27 02:49:59;;;;;;;;;;;20.00;35.30;;;;;;686155;28;1267;-83
2022/01/27 02:50:19;;;;;;;;;;;20.00;35.00;;;;;;686135;28;823;-81
2022/01/27 02:50:40;;;;;;;;;;;20.00;34.80;;;;;;686134;28;957;-82
2022/01/27 02:51:00;;;;;;;;;;;20.00;35.00;;;;;;685856;28;1661;-82
2022/01/27 02:51:21;;;;;;;;;;;20.00;35.10;;;;;;686153;28;811;-83
2022/01/27 02:51:41;;;;;;;;;;;20.00;35.00;;;;;;686201;28;835;-83
2022/01/27 02:52:02;;;;;;;;;;;20.00;35.00;;;;;;686308;28;898;-82
2022/01/27 02:52:23;;;;;;;;;;;20.00;34.90;;;;;;686181;28;897;-84
2022/01/27 02:52:43;;;;;;;;;;;20.00;34.80;;;;;;685674;28;1551;-82
2022/01/27 02:53:06;;;;;;;;;;;20.00;34.90;;;;;;686216;28;1443;-82
2022/01/27 02:53:27;;;;;;;;;;;20.00;35.10;;;;;;686238;28;842;-82
2022/01/27 02:53:47;;;;;;;;;;;20.00;35.00;;;;;;686171;28;930;-85
2022/01/27 02:54:08;;;;;;;;;;;20.00;34.80;;;;;;686216;28;826;-85
2022/01/27 02:54:28;;;;;;;;;;;20.00;34.90;;;;;;686203;28;807;-84
2022/01/27 02:54:49;;;;;;;;;;;20.00;34.90;;;;;;686198;28;1105;-83
2022/01/27 02:55:10;;;;;;;;;;;20.00;34.80;;;;;;686215;28;819;-84